sensor_id;sensor_type;location;lat;lon;timestamp;pressure;altitude;pressure_sealevel;temperature;humidity
76694;BME280;65625;52.136;5.424;2022-12-24T00:00:57;100592.75;;;9.09;96.35
76694;BME280;65625;52.136;5.424;2022-12-24T00:03:24;100601.78;;;9.08;96.78
76694;BME280;65625;52.136;5.424;2022-12-24T00:05:51;100599.94;;;9.09;96.77
76694;BME280;65625;52.136;5.424;2022-12-24T00:08:17;100605.56;;;9.06;96.94
76694;BME280;65625;52.136;5.424;2022-12-24T00:10:48;100611.81;;;9.06;96.76
76694;BME280;65625;52.136;5.424;2022-12-24T00:13:15;100609.31;;;9.03;96.95
76694;BME280;65625;52.136;5.424;2022-12-24T00:15:41;100609.00;;;9.08;96.80
76694;BME280;65625;52.136;5.424;2022-12-24T00:18:08;100618.91;;;9.07;96.95
76694;BME280;65625;52.136;5.424;2022-12-24T00:20:34;100623.41;;;9.07;96.75
76694;BME280;65625;52.136;5.424;2022-12-24T00:23:01;100617.09;;;9.08;96.62
76694;BME280;65625;52.136;5.424;2022-12-24T00:25:27;100631.50;;;9.07;96.86
76694;BME280;65625;52.136;5.424;2022-12-24T00:27:54;100627.09;;;9.06;96.59
76694;BME280;65625;52.136;5.424;2022-12-24T00:30:20;100633.34;;;9.06;96.72
76694;BME280;65625;52.136;5.424;2022-12-24T00:32:47;100639.16;;;9.00;96.75
76694;BME280;65625;52.136;5.424;2022-12-24T00:35:13;100628.06;;;9.05;96.45
76694;BME280;65625;52.136;5.424;2022-12-24T00:37:40;100636.34;;;9.02;96.25
76694;BME280;65625;52.136;5.424;2022-12-24T00:40:07;100648.22;;;8.99;96.47
76694;BME280;65625;52.136;5.424;2022-12-24T00:42:33;100648.34;;;8.98;96.25
76694;BME280;65625;52.136;5.424;2022-12-24T00:45:00;100649.16;;;8.98;96.07
76694;BME280;65625;52.136;5.424;2022-12-24T00:47:27;100653.94;;;8.94;96.10
76694;BME280;65625;52.136;5.424;2022-12-24T00:49:53;100663.19;;;8.90;96.09
76694;BME280;65625;52.136;5.424;2022-12-24T00:52:20;100677.72;;;8.88;96.21
76694;BME280;65625;52.136;5.424;2022-12-24T00:54:46;100666.09;;;8.87;96.12
76694;BME280;65625;52.136;5.424;2022-12-24T00:57:13;100677.94;;;8.85;96.48
76694;BME280;65625;52.136;5.424;2022-12-24T00:59:40;100678.81;;;8.85;96.71
76694;BME280;65625;52.136;5.424;2022-12-24T01:02:06;100682.47;;;8.84;96.50
76694;BME280;65625;52.136;5.424;2022-12-24T01:04:33;100684.19;;;8.85;96.51
76694;BME280;65625;52.136;5.424;2022-12-24T01:07:26;100694.97;;;8.85;96.27
76694;BME280;65625;52.136;5.424;2022-12-24T01:09:52;100701.94;;;8.88;96.40
76694;BME280;65625;52.136;5.424;2022-12-24T01:12:19;100702.28;;;8.83;96.34
76694;BME280;65625;52.136;5.424;2022-12-24T01:14:46;100717.47;;;8.84;96.39
76694;BME280;65625;52.136;5.424;2022-12-24T01:17:12;100727.69;;;8.79;96.32
76694;BME280;65625;52.136;5.424;2022-12-24T01:19:39;100733.25;;;8.76;96.07
76694;BME280;65625;52.136;5.424;2022-12-24T01:22:05;100726.59;;;8.69;96.36
76694;BME280;65625;52.136;5.424;2022-12-24T01:24:32;100742.09;;;8.66;96.28
76694;BME280;65625;52.136;5.424;2022-12-24T01:26:58;100739.91;;;8.58;96.38
76694;BME280;65625;52.136;5.424;2022-12-24T01:29:25;100745.50;;;8.55;96.60
76694;BME280;65625;52.136;5.424;2022-12-24T01:31:51;100748.53;;;8.51;96.35
76694;BME280;65625;52.136;5.424;2022-12-24T01:34:19;100747.00;;;8.47;96.53
76694;BME280;65625;52.136;5.424;2022-12-24T01:36:45;100741.94;;;8.42;96.45
76694;BME280;65625;52.136;5.424;2022-12-24T01:39:12;100750.41;;;8.36;96.56
76694;BME280;65625;52.136;5.424;2022-12-24T01:41:38;100751.81;;;8.29;96.64
76694;BME280;65625;52.136;5.424;2022-12-24T01:44:30;100749.16;;;8.15;97.06
76694;BME280;65625;52.136;5.424;2022-12-24T01:47:15;100746.97;;;8.08;97.37
76694;BME280;65625;52.136;5.424;2022-12-24T01:49:55;100749.41;;;7.98;97.17
76694;BME280;65625;52.136;5.424;2022-12-24T01:52:29;100769.66;;;7.90;97.67
76694;BME280;65625;52.136;5.424;2022-12-24T01:55:02;100773.53;;;7.86;97.88
76694;BME280;65625;52.136;5.424;2022-12-24T01:57:37;100776.50;;;7.81;97.51
76694;BME280;65625;52.136;5.424;2022-12-24T02:00:12;100773.06;;;7.79;97.92
76694;BME280;65625;52.136;5.424;2022-12-24T02:02:40;100780.16;;;7.80;97.62
76694;BME280;65625;52.136;5.424;2022-12-24T02:05:48;100783.25;;;7.74;97.86
76694;BME280;65625;52.136;5.424;2022-12-24T02:08:16;100791.78;;;7.66;98.20
76694;BME280;65625;52.136;5.424;2022-12-24T02:10:44;100795.66;;;7.62;97.64
76694;BME280;65625;52.136;5.424;2022-12-24T02:13:12;100800.56;;;7.56;98.29
76694;BME280;65625;52.136;5.424;2022-12-24T02:15:53;100799.97;;;7.51;98.29
76694;BME280;65625;52.136;5.424;2022-12-24T02:18:32;100802.16;;;7.44;98.44
76694;BME280;65625;52.136;5.424;2022-12-24T02:32:11;100823.28;;;7.22;98.86
76694;BME280;65625;52.136;5.424;2022-12-24T02:34:48;100820.84;;;7.18;99.26
76694;BME280;65625;52.136;5.424;2022-12-24T02:37:26;100826.31;;;7.16;99.20
76694;BME280;65625;52.136;5.424;2022-12-24T02:39:59;100820.28;;;7.13;99.13
76694;BME280;65625;52.136;5.424;2022-12-24T02:42:37;100833.78;;;7.11;99.17
76694;BME280;65625;52.136;5.424;2022-12-24T02:45:08;100830.34;;;7.09;99.68
76694;BME280;65625;52.136;5.424;2022-12-24T02:47:36;100822.28;;;7.09;99.01
76694;BME280;65625;52.136;5.424;2022-12-24T02:50:06;100831.31;;;7.08;99.58
76694;BME280;65625;52.136;5.424;2022-12-24T02:52:42;100829.50;;;7.09;99.85
76694;BME280;65625;52.136;5.424;2022-12-24T03:00:29;100838.19;;;6.98;99.29
76694;BME280;65625;52.136;5.424;2022-12-24T03:03:23;100848.06;;;6.98;100.00
76694;BME280;65625;52.136;5.424;2022-12-24T03:06:02;100845.56;;;6.95;99.58
76694;BME280;65625;52.136;5.424;2022-12-24T03:08:48;100851.78;;;6.95;99.84
76694;BME280;65625;52.136;5.424;2022-12-24T03:11:19;100850.81;;;6.96;100.00
76694;BME280;65625;52.136;5.424;2022-12-24T03:13:47;100849.13;;;6.95;99.99
76694;BME280;65625;52.136;5.424;2022-12-24T03:16:16;100848.53;;;6.90;100.00
76694;BME280;65625;52.136;5.424;2022-12-24T03:18:48;100843.06;;;6.92;99.64
76694;BME280;65625;52.136;5.424;2022-12-24T03:21:21;100845.84;;;6.90;99.84
76694;BME280;65625;52.136;5.424;2022-12-24T03:23:49;100842.38;;;6.88;100.00
76694;BME280;65625;52.136;5.424;2022-12-24T03:26:17;100844.19;;;6.88;99.79
76694;BME280;65625;52.136;5.424;2022-12-24T03:28:45;100858.38;;;6.90;99.90
76694;BME280;65625;52.136;5.424;2022-12-24T03:31:12;100858.38;;;6.90;99.65
76694;BME280;65625;52.136;5.424;2022-12-24T03:33:39;100859.06;;;6.93;100.00
76694;BME280;65625;52.136;5.424;2022-12-24T03:36:06;100868.09;;;6.92;100.00
76694;BME280;65625;52.136;5.424;2022-12-24T03:38:34;100864.63;;;6.90;100.00
76694;BME280;65625;52.136;5.424;2022-12-24T03:41:00;100861.84;;;6.92;100.00
76694;BME280;65625;52.136;5.424;2022-12-24T03:43:27;100868.56;;;6.99;99.90
76694;BME280;65625;52.136;5.424;2022-12-24T03:45:54;100867.59;;;7.00;100.00
76694;BME280;65625;52.136;5.424;2022-12-24T03:48:21;100866.00;;;6.97;99.87
76694;BME280;65625;52.136;5.424;2022-12-24T03:50:54;100866.78;;;6.99;100.00
76694;BME280;65625;52.136;5.424;2022-12-24T03:53:20;100861.91;;;7.06;100.00
76694;BME280;65625;52.136;5.424;2022-12-24T03:55:47;100874.06;;;7.11;100.00
76694;BME280;65625;52.136;5.424;2022-12-24T03:58:14;100874.44;;;7.19;100.00
76694;BME280;65625;52.136;5.424;2022-12-24T04:00:40;100885.50;;;7.29;100.00
76694;BME280;65625;52.136;5.424;2022-12-24T04:03:07;100876.72;;;7.41;100.00
76694;BME280;65625;52.136;5.424;2022-12-24T04:05:33;100874.31;;;7.50;100.00
76694;BME280;65625;52.136;5.424;2022-12-24T04:08:00;100884.47;;;7.59;100.00
76694;BME280;65625;52.136;5.424;2022-12-24T04:10:26;100884.97;;;7.66;100.00
76694;BME280;65625;52.136;5.424;2022-12-24T04:12:53;100890.03;;;7.70;100.00
76694;BME280;65625;52.136;5.424;2022-12-24T04:15:19;100890.53;;;7.77;100.00
76694;BME280;65625;52.136;5.424;2022-12-24T04:17:45;100887.63;;;7.80;100.00
76694;BME280;65625;52.136;5.424;2022-12-24T04:20:12;100889.19;;;7.84;100.00
76694;BME280;65625;52.136;5.424;2022-12-24T04:22:39;100881.84;;;7.86;100.00
76694;BME280;65625;52.136;5.424;2022-12-24T04:25:06;100887.81;;;7.91;100.00
76694;BME280;65625;52.136;5.424;2022-12-24T04:27:33;100891.16;;;7.95;100.00
76694;BME280;65625;52.136;5.424;2022-12-24T04:29:59;100888.47;;;7.95;100.00
76694;BME280;65625;52.136;5.424;2022-12-24T04:32:26;100900.09;;;7.95;100.00
76694;BME280;65625;52.136;5.424;2022-12-24T04:34:52;100895.09;;;8.03;100.00
76694;BME280;65625;52.136;5.424;2022-12-24T04:37:19;100893.38;;;8.02;100.00
76694;BME280;65625;52.136;5.424;2022-12-24T04:39:45;100897.56;;;8.06;100.00
76694;BME280;65625;52.136;5.424;2022-12-24T04:42:12;100905.66;;;8.06;100.00
76694;BME280;65625;52.136;5.424;2022-12-24T04:44:38;100911.03;;;8.06;100.00
76694;BME280;65625;52.136;5.424;2022-12-24T04:47:05;100909.31;;;8.05;100.00
76694;BME280;65625;52.136;5.424;2022-12-24T04:49:31;100909.19;;;8.07;100.00
76694;BME280;65625;52.136;5.424;2022-12-24T04:51:58;100905.56;;;8.08;100.00
76694;BME280;65625;52.136;5.424;2022-12-24T04:54:24;100901.03;;;8.08;100.00
76694;BME280;65625;52.136;5.424;2022-12-24T04:56:51;100902.88;;;8.08;100.00
76694;BME280;65625;52.136;5.424;2022-12-24T04:59:18;100904.69;;;8.07;100.00
76694;BME280;65625;52.136;5.424;2022-12-24T05:01:44;100909.78;;;8.12;100.00
76694;BME280;65625;52.136;5.424;2022-12-24T05:04:11;100918.59;;;8.14;100.00
76694;BME280;65625;52.136;5.424;2022-12-24T05:06:37;100918.50;;;8.15;100.00
76694;BME280;65625;52.136;5.424;2022-12-24T05:09:04;100925.69;;;8.15;100.00
76694;BME280;65625;52.136;5.424;2022-12-24T05:11:31;100919.28;;;8.17;100.00
76694;BME280;65625;52.136;5.424;2022-12-24T05:13:57;100920.88;;;8.20;100.00
76694;BME280;65625;52.136;5.424;2022-12-24T05:16:24;100913.69;;;8.20;100.00
76694;BME280;65625;52.136;5.424;2022-12-24T05:18:51;100911.72;;;8.24;100.00
76694;BME280;65625;52.136;5.424;2022-12-24T05:21:21;100917.97;;;8.24;100.00
76694;BME280;65625;52.136;5.424;2022-12-24T05:23:48;100915.28;;;8.24;100.00
76694;BME280;65625;52.136;5.424;2022-12-24T05:26:45;100914.47;;;8.22;100.00
76694;BME280;65625;52.136;5.424;2022-12-24T05:29:13;100924.28;;;8.23;100.00
76694;BME280;65625;52.136;5.424;2022-12-24T05:31:41;100931.41;;;8.24;100.00
76694;BME280;65625;52.136;5.424;2022-12-24T05:34:09;100928.50;;;8.27;100.00
76694;BME280;65625;52.136;5.424;2022-12-24T05:36:37;100920.34;;;8.29;100.00
76694;BME280;65625;52.136;5.424;2022-12-24T05:39:04;100931.88;;;8.31;100.00
76694;BME280;65625;52.136;5.424;2022-12-24T05:41:39;100935.41;;;8.31;100.00
76694;BME280;65625;52.136;5.424;2022-12-24T05:44:05;100945.31;;;8.31;100.00
76694;BME280;65625;52.136;5.424;2022-12-24T05:46:32;100937.16;;;8.32;100.00
76694;BME280;65625;52.136;5.424;2022-12-24T05:48:58;100929.84;;;8.34;100.00
76694;BME280;65625;52.136;5.424;2022-12-24T05:51:24;100938.50;;;8.39;100.00
76694;BME280;65625;52.136;5.424;2022-12-24T05:53:51;100935.50;;;8.44;100.00
76694;BME280;65625;52.136;5.424;2022-12-24T05:56:20;100931.00;;;8.44;100.00
76694;BME280;65625;52.136;5.424;2022-12-24T05:58:47;100934.41;;;8.46;100.00
76694;BME280;65625;52.136;5.424;2022-12-24T06:01:14;100941.53;;;8.47;100.00
76694;BME280;65625;52.136;5.424;2022-12-24T06:03:41;100947.88;;;8.46;100.00
76694;BME280;65625;52.136;5.424;2022-12-24T06:06:14;100942.22;;;8.51;100.00
76694;BME280;65625;52.136;5.424;2022-12-24T06:08:41;100953.69;;;8.53;100.00
76694;BME280;65625;52.136;5.424;2022-12-24T06:11:12;100950.94;;;8.54;100.00
76694;BME280;65625;52.136;5.424;2022-12-24T06:13:40;100947.38;;;8.54;100.00
76694;BME280;65625;52.136;5.424;2022-12-24T06:16:09;100948.44;;;8.51;100.00
76694;BME280;65625;52.136;5.424;2022-12-24T06:18:36;100953.13;;;8.48;100.00
76694;BME280;65625;52.136;5.424;2022-12-24T06:21:04;100966.69;;;8.46;100.00
76694;BME280;65625;52.136;5.424;2022-12-24T06:23:33;100967.34;;;8.50;100.00
76694;BME280;65625;52.136;5.424;2022-12-24T06:26:00;100969.78;;;8.54;100.00
76694;BME280;65625;52.136;5.424;2022-12-24T06:28:28;100965.91;;;8.58;100.00
76694;BME280;65625;52.136;5.424;2022-12-24T06:30:55;100965.03;;;8.58;100.00
76694;BME280;65625;52.136;5.424;2022-12-24T06:33:29;100963.09;;;8.60;100.00
76694;BME280;65625;52.136;5.424;2022-12-24T06:35:56;100974.06;;;8.57;100.00
76694;BME280;65625;52.136;5.424;2022-12-24T06:38:22;100983.22;;;8.54;100.00
76694;BME280;65625;52.136;5.424;2022-12-24T06:40:49;100974.38;;;8.52;100.00
76694;BME280;65625;52.136;5.424;2022-12-24T06:43:16;100973.09;;;8.58;100.00
76694;BME280;65625;52.136;5.424;2022-12-24T06:45:46;100974.94;;;8.57;100.00
76694;BME280;65625;52.136;5.424;2022-12-24T06:48:14;100990.00;;;8.60;100.00
76694;BME280;65625;52.136;5.424;2022-12-24T06:50:41;100986.19;;;8.64;100.00
76694;BME280;65625;52.136;5.424;2022-12-24T06:53:08;100997.03;;;8.62;100.00
76694;BME280;65625;52.136;5.424;2022-12-24T06:55:35;100994.34;;;8.62;100.00
76694;BME280;65625;52.136;5.424;2022-12-24T06:58:02;100989.75;;;8.64;100.00
76694;BME280;65625;52.136;5.424;2022-12-24T07:00:28;100991.66;;;8.62;100.00
76694;BME280;65625;52.136;5.424;2022-12-24T07:02:55;100990.00;;;8.60;100.00
76694;BME280;65625;52.136;5.424;2022-12-24T07:05:21;100984.84;;;8.57;100.00
76694;BME280;65625;52.136;5.424;2022-12-24T07:07:48;100989.16;;;8.59;100.00
76694;BME280;65625;52.136;5.424;2022-12-24T07:10:15;100994.56;;;8.59;100.00
76694;BME280;65625;52.136;5.424;2022-12-24T07:12:43;101004.44;;;8.59;100.00
76694;BME280;65625;52.136;5.424;2022-12-24T07:15:10;100994.00;;;8.54;100.00
76694;BME280;65625;52.136;5.424;2022-12-24T07:17:37;101010.28;;;8.51;100.00
76694;BME280;65625;52.136;5.424;2022-12-24T07:20:06;101009.56;;;8.49;100.00
76694;BME280;65625;52.136;5.424;2022-12-24T07:22:33;101006.09;;;8.47;100.00
76694;BME280;65625;52.136;5.424;2022-12-24T07:24:59;101007.25;;;8.43;100.00
76694;BME280;65625;52.136;5.424;2022-12-24T07:27:26;101011.28;;;8.36;100.00
76694;BME280;65625;52.136;5.424;2022-12-24T07:29:53;101013.97;;;8.36;100.00
76694;BME280;65625;52.136;5.424;2022-12-24T07:32:19;101030.97;;;8.37;100.00
76694;BME280;65625;52.136;5.424;2022-12-24T07:34:46;101029.06;;;8.39;100.00
76694;BME280;65625;52.136;5.424;2022-12-24T07:37:12;101032.31;;;8.44;100.00
76694;BME280;65625;52.136;5.424;2022-12-24T07:39:39;101037.50;;;8.47;100.00
76694;BME280;65625;52.136;5.424;2022-12-24T07:42:05;101051.63;;;8.50;100.00
76694;BME280;65625;52.136;5.424;2022-12-24T07:44:34;101062.97;;;8.55;100.00
76694;BME280;65625;52.136;5.424;2022-12-24T07:47:01;101060.25;;;8.55;100.00
76694;BME280;65625;52.136;5.424;2022-12-24T07:49:28;101066.41;;;8.57;100.00
76694;BME280;65625;52.136;5.424;2022-12-24T07:51:54;101071.59;;;8.60;100.00
76694;BME280;65625;52.136;5.424;2022-12-24T07:54:21;101076.00;;;8.61;100.00
76694;BME280;65625;52.136;5.424;2022-12-24T07:56:48;101080.53;;;8.61;100.00
76694;BME280;65625;52.136;5.424;2022-12-24T07:59:14;101087.53;;;8.63;100.00
76694;BME280;65625;52.136;5.424;2022-12-24T08:01:41;101102.75;;;8.64;100.00
76694;BME280;65625;52.136;5.424;2022-12-24T08:04:08;101111.75;;;8.63;100.00
76694;BME280;65625;52.136;5.424;2022-12-24T08:06:35;101109.84;;;8.65;100.00
76694;BME280;65625;52.136;5.424;2022-12-24T08:09:01;101107.16;;;8.65;100.00
76694;BME280;65625;52.136;5.424;2022-12-24T08:11:28;101114.25;;;8.66;100.00
76694;BME280;65625;52.136;5.424;2022-12-24T08:13:54;101117.81;;;8.67;100.00
76694;BME280;65625;52.136;5.424;2022-12-24T08:16:21;101112.53;;;8.65;100.00
76694;BME280;65625;52.136;5.424;2022-12-24T08:18:48;101114.34;;;8.65;100.00
76694;BME280;65625;52.136;5.424;2022-12-24T08:21:15;101124.06;;;8.67;100.00
76694;BME280;65625;52.136;5.424;2022-12-24T08:23:41;101124.84;;;8.69;100.00
76694;BME280;65625;52.136;5.424;2022-12-24T08:26:09;101130.13;;;8.71;99.87
76694;BME280;65625;52.136;5.424;2022-12-24T08:28:35;101131.75;;;8.73;100.00
76694;BME280;65625;52.136;5.424;2022-12-24T08:31:02;101137.03;;;8.75;99.54
76694;BME280;65625;52.136;5.424;2022-12-24T08:33:29;101137.91;;;8.75;99.69
76694;BME280;65625;52.136;5.424;2022-12-24T08:35:56;101144.53;;;8.84;99.65
76694;BME280;65625;52.136;5.424;2022-12-24T08:38:23;101131.03;;;8.98;99.56
76694;BME280;65625;52.136;5.424;2022-12-24T08:40:52;101144.59;;;9.11;99.55
76694;BME280;65625;52.136;5.424;2022-12-24T08:43:19;101147.19;;;9.12;99.25
76694;BME280;65625;52.136;5.424;2022-12-24T08:45:46;101146.41;;;9.10;99.27
76694;BME280;65625;52.136;5.424;2022-12-24T08:48:14;101150.94;;;9.10;98.93
76694;BME280;65625;52.136;5.424;2022-12-24T08:50:41;101156.31;;;9.10;98.87
76694;BME280;65625;52.136;5.424;2022-12-24T08:53:09;101164.38;;;9.10;98.78
76694;BME280;65625;52.136;5.424;2022-12-24T08:55:36;101160.84;;;9.09;98.77
76694;BME280;65625;52.136;5.424;2022-12-24T08:58:03;101170.84;;;9.07;98.91
76694;BME280;65625;52.136;5.424;2022-12-24T09:00:30;101171.63;;;9.09;98.61
76694;BME280;65625;52.136;5.424;2022-12-24T09:02:56;101178.53;;;9.13;98.80
76694;BME280;65625;52.136;5.424;2022-12-24T09:05:23;101176.41;;;9.18;98.51
76694;BME280;65625;52.136;5.424;2022-12-24T09:07:51;101185.50;;;9.44;98.38
76694;BME280;65625;52.136;5.424;2022-12-24T09:10:18;101184.25;;;9.49;98.03
76694;BME280;65625;52.136;5.424;2022-12-24T09:12:44;101187.31;;;9.43;97.78
76694;BME280;65625;52.136;5.424;2022-12-24T09:15:11;101191.31;;;9.38;97.94
76694;BME280;65625;52.136;5.424;2022-12-24T09:17:39;101191.69;;;9.32;97.89
76694;BME280;65625;52.136;5.424;2022-12-24T09:20:07;101205.34;;;9.29;98.00
76694;BME280;65625;52.136;5.424;2022-12-24T09:22:38;101202.66;;;9.29;98.03
76694;BME280;65625;52.136;5.424;2022-12-24T09:25:05;101214.22;;;9.31;97.86
76694;BME280;65625;52.136;5.424;2022-12-24T09:27:32;101212.47;;;9.30;98.15
76694;BME280;65625;52.136;5.424;2022-12-24T09:29:59;101229.19;;;9.35;97.68
76694;BME280;65625;52.136;5.424;2022-12-24T09:32:25;101212.75;;;9.39;98.11
76694;BME280;65625;52.136;5.424;2022-12-24T09:34:52;101221.50;;;9.43;97.87
76694;BME280;65625;52.136;5.424;2022-12-24T09:37:19;101224.09;;;9.44;97.67
76694;BME280;65625;52.136;5.424;2022-12-24T09:39:45;101226.59;;;9.47;98.01
76694;BME280;65625;52.136;5.424;2022-12-24T09:42:27;101227.84;;;9.56;97.51
76694;BME280;65625;52.136;5.424;2022-12-24T09:45:02;101243.59;;;9.62;97.70
76694;BME280;65625;52.136;5.424;2022-12-24T09:47:52;101247.16;;;9.62;97.49
76694;BME280;65625;52.136;5.424;2022-12-24T09:50:44;101257.47;;;9.56;97.27
76694;BME280;65625;52.136;5.424;2022-12-24T09:53:24;101254.97;;;9.53;96.98
76694;BME280;65625;52.136;5.424;2022-12-24T09:55:57;101250.63;;;9.50;97.35
76694;BME280;65625;52.136;5.424;2022-12-24T09:58:32;101241.97;;;9.45;96.91
76694;BME280;65625;52.136;5.424;2022-12-24T10:01:00;101247.72;;;9.67;96.55
76694;BME280;65625;52.136;5.424;2022-12-24T10:03:26;101248.41;;;9.97;96.27
76694;BME280;65625;52.136;5.424;2022-12-24T10:06:18;101252.28;;;10.59;94.44
76694;BME280;65625;52.136;5.424;2022-12-24T10:14:43;101255.13;;;9.64;95.60
76694;BME280;65625;52.136;5.424;2022-12-24T10:17:46;101259.38;;;9.68;95.99
76694;BME280;65625;52.136;5.424;2022-12-24T10:20:29;101267.63;;;10.19;95.18
76694;BME280;65625;52.136;5.424;2022-12-24T10:23:06;101263.06;;;10.20;94.54
76694;BME280;65625;52.136;5.424;2022-12-24T10:25:55;101262.94;;;10.09;94.84
76694;BME280;65625;52.136;5.424;2022-12-24T10:28:39;101250.59;;;10.71;93.53
76694;BME280;65625;52.136;5.424;2022-12-24T10:31:08;101246.19;;;12.05;89.79
76694;BME280;65625;52.136;5.424;2022-12-24T10:33:42;101245.38;;;12.85;86.27
76694;BME280;65625;52.136;5.424;2022-12-24T10:36:16;101241.28;;;13.58;81.72
76694;BME280;65625;52.136;5.424;2022-12-24T10:38:44;101244.94;;;13.90;82.49
76694;BME280;65625;52.136;5.424;2022-12-24T10:41:12;101248.81;;;14.08;80.08
76694;BME280;65625;52.136;5.424;2022-12-24T10:43:40;101251.19;;;14.44;77.71
76694;BME280;65625;52.136;5.424;2022-12-24T10:46:21;101253.88;;;14.76;77.95
76694;BME280;65625;52.136;5.424;2022-12-24T10:48:53;101248.88;;;15.52;74.26
76694;BME280;65625;52.136;5.424;2022-12-24T10:51:28;101260.66;;;14.07;77.20
76694;BME280;65625;52.136;5.424;2022-12-24T10:54:04;101259.34;;;12.56;81.50
76694;BME280;65625;52.136;5.424;2022-12-24T10:56:39;101256.41;;;11.89;84.64
76694;BME280;65625;52.136;5.424;2022-12-24T10:59:42;101262.19;;;12.08;85.07
76694;BME280;65625;52.136;5.424;2022-12-24T11:02:36;101273.16;;;11.32;87.60
76694;BME280;65625;52.136;5.424;2022-12-24T11:05:06;101279.44;;;10.95;88.58
76694;BME280;65625;52.136;5.424;2022-12-24T11:07:33;101274.47;;;10.89;89.50
76694;BME280;65625;52.136;5.424;2022-12-24T11:10:05;101280.50;;;10.80;90.02
76694;BME280;65625;52.136;5.424;2022-12-24T11:12:34;101275.75;;;10.71;90.27
76694;BME280;65625;52.136;5.424;2022-12-24T11:15:06;101274.84;;;10.58;90.48
76694;BME280;65625;52.136;5.424;2022-12-24T11:17:33;101275.59;;;10.48;90.72
76694;BME280;65625;52.136;5.424;2022-12-24T11:20:00;101278.56;;;10.43;91.29
76694;BME280;65625;52.136;5.424;2022-12-24T11:22:30;101275.16;;;10.41;91.58
76694;BME280;65625;52.136;5.424;2022-12-24T11:25:17;101270.22;;;10.60;91.44
76694;BME280;65625;52.136;5.424;2022-12-24T11:27:49;101273.50;;;10.78;91.29
76694;BME280;65625;52.136;5.424;2022-12-24T11:30:27;101270.78;;;10.78;90.74
76694;BME280;65625;52.136;5.424;2022-12-24T11:35:30;101288.09;;;10.49;91.57
76694;BME280;65625;52.136;5.424;2022-12-24T11:40:33;101285.31;;;10.23;91.43
76694;BME280;65625;52.136;5.424;2022-12-24T11:43:01;101285.63;;;10.19;92.09
76694;BME280;65625;52.136;5.424;2022-12-24T11:45:30;101286.91;;;10.13;92.50
76694;BME280;65625;52.136;5.424;2022-12-24T11:47:58;101290.94;;;10.06;91.46
76694;BME280;65625;52.136;5.424;2022-12-24T11:50:28;101291.25;;;10.02;92.33
76694;BME280;65625;52.136;5.424;2022-12-24T11:55:52;101295.59;;;10.04;91.24
76694;BME280;65625;52.136;5.424;2022-12-24T12:03:52;101303.19;;;10.12;90.80
76694;BME280;65625;52.136;5.424;2022-12-24T12:06:31;101303.38;;;10.23;90.30
76694;BME280;65625;52.136;5.424;2022-12-24T12:09:28;101300.09;;;10.45;90.97
76694;BME280;65625;52.136;5.424;2022-12-24T12:12:28;101314.47;;;10.58;88.85
76694;BME280;65625;52.136;5.424;2022-12-24T12:15:00;101313.94;;;10.65;88.75
76694;BME280;65625;52.136;5.424;2022-12-24T12:17:35;101313.28;;;10.62;88.48
76694;BME280;65625;52.136;5.424;2022-12-24T12:23:04;101323.09;;;10.50;86.95
76694;BME280;65625;52.136;5.424;2022-12-24T12:28:46;101333.59;;;10.28;88.16
76694;BME280;65625;52.136;5.424;2022-12-24T12:31:34;101336.47;;;10.25;87.61
76694;BME280;65625;52.136;5.424;2022-12-24T12:34:15;101338.44;;;10.23;87.02
76694;BME280;65625;52.136;5.424;2022-12-24T12:36:53;101335.19;;;10.18;87.15
76694;BME280;65625;52.136;5.424;2022-12-24T12:39:23;101335.34;;;10.15;86.86
76694;BME280;65625;52.136;5.424;2022-12-24T12:42:19;101330.06;;;10.13;87.67
76694;BME280;65625;52.136;5.424;2022-12-24T12:48:22;101342.09;;;10.22;88.01
76694;BME280;65625;52.136;5.424;2022-12-24T12:52:05;101349.28;;;10.36;87.41
76694;BME280;65625;52.136;5.424;2022-12-24T12:54:20;101342.63;;;10.41;87.49
76694;BME280;65625;52.136;5.424;2022-12-24T12:56:53;101350.25;;;10.35;87.43
76694;BME280;65625;52.136;5.424;2022-12-24T12:59:50;101350.16;;;10.36;87.31
76694;BME280;65625;52.136;5.424;2022-12-24T13:16:30;101362.03;;;10.05;88.16
76694;BME280;65625;52.136;5.424;2022-12-24T13:21:46;101354.72;;;10.07;87.11
76694;BME280;65625;52.136;5.424;2022-12-24T13:24:23;101352.00;;;10.21;87.37
76694;BME280;65625;52.136;5.424;2022-12-24T13:27:22;101363.19;;;10.30;88.11
76694;BME280;65625;52.136;5.424;2022-12-24T13:29:59;101368.06;;;10.37;87.77
76694;BME280;65625;52.136;5.424;2022-12-24T13:37:47;101378.44;;;10.43;86.08
76694;BME280;65625;52.136;5.424;2022-12-24T13:40:16;101388.28;;;10.44;86.67
76694;BME280;65625;52.136;5.424;2022-12-24T13:48:13;101402.53;;;10.46;86.11
76694;BME280;65625;52.136;5.424;2022-12-24T13:50:54;101409.00;;;10.44;85.46
76694;BME280;65625;52.136;5.424;2022-12-24T13:53:31;101401.53;;;10.35;85.96
76694;BME280;65625;52.136;5.424;2022-12-24T13:56:08;101400.50;;;10.23;85.48
76694;BME280;65625;52.136;5.424;2022-12-24T13:58:38;101405.59;;;10.13;86.88
76694;BME280;65625;52.136;5.424;2022-12-24T14:01:34;101403.38;;;10.06;86.40
76694;BME280;65625;52.136;5.424;2022-12-24T14:04:04;101408.09;;;10.02;87.51
76694;BME280;65625;52.136;5.424;2022-12-24T14:06:39;101412.06;;;10.11;87.19
76694;BME280;65625;52.136;5.424;2022-12-24T14:09:13;101422.94;;;10.09;87.13
76694;BME280;65625;52.136;5.424;2022-12-24T14:16:57;101422.34;;;10.18;87.81
76694;BME280;65625;52.136;5.424;2022-12-24T14:19:28;101433.25;;;10.17;87.13
76694;BME280;65625;52.136;5.424;2022-12-24T14:24:50;101436.13;;;10.14;87.27
76694;BME280;65625;52.136;5.424;2022-12-24T14:27:19;101429.88;;;10.13;87.58
76694;BME280;65625;52.136;5.424;2022-12-24T14:29:57;101424.84;;;10.07;86.87
76694;BME280;65625;52.136;5.424;2022-12-24T14:32:39;101417.66;;;10.08;88.04